createdAt,value
2023-01-26T00:05:08.782Z,63.8
2023-01-26T00:10:20.723Z,50.2
2023-01-26T00:15:35.595Z,55.3
2023-01-26T00:20:41.873Z,49.1
2023-01-26T00:25:53.869Z,47.6
2023-01-26T00:31:02.642Z,54.1
2023-01-26T00:36:15.145Z,46
2023-01-26T00:41:25.809Z,46.2
2023-01-26T00:46:36.768Z,50.8
2023-01-26T00:51:48.269Z,56.8
2023-01-26T00:56:59.794Z,58.2
2023-01-26T01:02:13.053Z,62
2023-01-26T01:12:44.087Z,67.2
2023-01-26T01:17:53.527Z,70.6
2023-01-26T01:23:05.851Z,64.4
2023-01-26T01:33:38.851Z,63.2
2023-01-26T01:38:47.806Z,71.4
2023-01-26T01:44:03.409Z,63.5
2023-01-26T01:49:15.566Z,65.6
2023-01-26T01:54:25.837Z,69.1
2023-01-26T01:59:36.760Z,75.1
2023-01-26T02:04:48.413Z,76.1
2023-01-26T02:09:59.621Z,81.1
2023-01-26T02:20:43.639Z,80
2023-01-26T02:25:54.739Z,78.5
2023-01-26T02:31:09.290Z,67.4
2023-01-26T02:36:20.383Z,58.1
2023-01-26T02:41:31.603Z,60.9
2023-01-26T02:46:46.660Z,49.8
2023-01-26T02:51:58.271Z,57.9
2023-01-26T02:57:04.756Z,38.3
2023-01-26T03:02:16.525Z,37.8
2023-01-26T03:07:28.867Z,42.7
2023-01-26T03:12:39.948Z,45.1
2023-01-26T03:17:51.983Z,33.5
2023-01-26T03:23:03.509Z,39.9
2023-01-26T03:28:15.312Z,47.3
2023-01-26T03:33:27.168Z,49.7
2023-01-26T03:43:58.822Z,63.2
2023-01-26T03:49:11.321Z,55.1
2023-01-26T03:54:22.146Z,48
2023-01-26T03:59:32.418Z,55
2023-01-26T04:04:43.184Z,59.6
2023-01-26T04:09:54.435Z,63.4
2023-01-26T04:15:05.879Z,59.1
2023-01-26T04:20:22.066Z,47.4
2023-01-26T04:25:33.995Z,45.6
2023-01-26T04:41:26.721Z,43.1
2023-01-26T04:46:38.425Z,42.5
2023-01-26T04:51:50.706Z,50.8
2023-01-26T04:57:06.193Z,41
2023-01-26T05:02:18.548Z,49.8
2023-01-26T05:07:34.768Z,44.1
2023-01-26T05:12:45.022Z,50.2
2023-01-26T05:17:56.951Z,49.5
2023-01-26T05:23:08.874Z,45.7
2023-01-26T05:28:20.728Z,42.6
2023-01-26T05:33:32.761Z,45.6
2023-01-26T05:38:42.522Z,45.1
2023-01-26T05:49:15.053Z,46.8
2023-01-26T06:10:43.581Z,42.3
2023-01-26T06:26:53.456Z,45.8
2023-01-26T06:32:05.172Z,48.9
2023-01-26T06:37:21.265Z,43.7
2023-01-26T06:42:37.316Z,36.8
2023-01-26T06:47:52.311Z,43.7
2023-01-26T06:53:01.104Z,43.6
2023-01-26T07:09:11.663Z,40
2023-01-26T07:19:41.040Z,38.5
2023-01-26T07:30:26.434Z,34.8
2023-01-26T07:35:43.590Z,51.1
2023-01-26T07:40:50.171Z,33.5
2023-01-26T07:46:05.334Z,37.8
2023-01-26T07:51:16.800Z,43.6
2023-01-26T08:23:15.867Z,39.4
2023-01-26T08:28:28.281Z,47.7
2023-01-26T08:33:43.172Z,38.9
2023-01-26T08:38:55.026Z,38.6
2023-01-26T08:49:40.281Z,31.2
2023-01-26T08:54:50.782Z,32.1
2023-01-26T09:00:04.303Z,27
2023-01-26T09:05:12.361Z,28.7
2023-01-26T09:31:55.916Z,26.3
2023-01-26T09:48:10.914Z,42.4
2023-01-26T09:53:20.833Z,28.3
2023-01-26T09:58:34.433Z,28.3
2023-01-26T10:03:45.626Z,24.2
2023-01-26T10:09:03.546Z,28.6
2023-01-26T10:14:20.432Z,26
2023-01-26T10:19:34.470Z,20.7
2023-01-26T10:24:50.824Z,26.4
2023-01-26T10:30:08.500Z,22.7
2023-01-26T10:40:51.261Z,23.5
2023-01-26T10:46:04.120Z,32.6
2023-01-26T10:51:18.871Z,23.8
2023-01-26T10:56:37.834Z,29.1
2023-01-26T11:01:47.742Z,26.1
2023-01-26T11:06:59.751Z,24.9
2023-01-26T11:12:15.334Z,20.6
2023-01-26T11:17:31.949Z,16
2023-01-26T11:22:42.046Z,17.7
2023-01-26T11:38:34.126Z,22.1
2023-01-26T11:43:53.075Z,17.9
2023-01-26T11:49:07.357Z,20.3
2023-01-26T11:59:43.767Z,21.5
2023-01-26T12:04:59.072Z,25.8
2023-01-26T12:10:12.937Z,23.4
2023-01-26T12:15:29.632Z,19.5
2023-01-26T12:20:42.333Z,19.3
2023-01-26T12:31:23.364Z,17.8
2023-01-26T12:52:47.555Z,16.5
2023-01-26T12:57:59.919Z,20.1
2023-01-26T13:08:32.053Z,18.6
2023-01-26T13:13:44.147Z,16.5
2023-01-26T13:24:16.263Z,16.6
2023-01-26T13:40:26.280Z,20.7
2023-01-26T13:45:38.367Z,16.3
2023-01-26T13:50:53.775Z,19.8
2023-01-26T14:01:27.021Z,18.1
2023-01-26T14:22:46.461Z,20.1
2023-01-26T14:27:58.240Z,15.6
2023-01-26T14:33:10.934Z,16.2
2023-01-26T14:38:24.770Z,20.1
2023-01-26T14:54:16.128Z,21.9
2023-01-26T15:05:01.498Z,47
2023-01-26T15:10:14.816Z,37
2023-01-26T15:15:25.807Z,18.1
2023-01-26T15:26:06.761Z,24.4
2023-01-26T15:31:15.884Z,27.9
2023-01-26T15:36:31.856Z,26.4
2023-01-26T15:41:48.362Z,23
2023-01-26T15:47:00.642Z,25.4
2023-01-26T15:52:19.581Z,20.7
2023-01-26T15:57:35.094Z,25.1
2023-01-26T16:02:52.306Z,17.8
2023-01-26T16:08:05.809Z,26.6
2023-01-26T16:13:21.847Z,23.2
2023-01-26T16:18:33.440Z,23.8
2023-01-26T16:45:13.138Z,30.4
2023-01-26T16:50:24.256Z,17.6
2023-01-26T17:01:08.224Z,26.5
2023-01-26T17:06:21.114Z,29.9
2023-01-26T17:17:07.414Z,21.2
2023-01-26T17:22:15.971Z,18.3
2023-01-26T17:38:21.624Z,14.4
2023-01-26T17:43:31.964Z,15
2023-01-26T17:59:29.642Z,26.3
2023-01-26T18:04:42.243Z,12.6
2023-01-26T18:26:22.130Z,13.5
2023-01-26T18:47:49.843Z,13.1
2023-01-26T19:03:54.004Z,16.5
2023-01-26T19:09:01.403Z,18.6
2023-01-26T19:24:59.239Z,22.1
2023-01-26T19:30:09.281Z,17.6
2023-01-26T19:51:39.300Z,15.6
2023-01-26T19:56:51.995Z,11.1
2023-01-26T20:07:37.241Z,14.5
2023-01-26T20:12:45.972Z,8
2023-01-26T20:29:00.079Z,12.1
2023-01-26T20:34:08.525Z,11.2
2023-01-26T20:44:45.173Z,8.5
2023-01-26T20:49:58.872Z,12
2023-01-26T20:55:38.077Z,16.6
2023-01-26T21:00:52.407Z,11.9
2023-01-26T21:11:34.310Z,8.7
2023-01-26T21:22:17.389Z,12.9
2023-01-26T21:27:33.843Z,14.3
2023-01-26T21:32:45.306Z,17
2023-01-26T21:44:39.412Z,14.4
2023-01-26T21:55:15.969Z,12.8
2023-01-26T22:00:26.649Z,15.2
2023-01-26T22:05:40.173Z,16.1
2023-01-26T22:10:54.069Z,13.8
2023-01-26T22:21:43.743Z,12.3
2023-01-26T22:26:58.467Z,19
2023-01-26T22:32:09.864Z,15.4
2023-01-26T22:42:53.429Z,18.8
2023-01-26T22:48:11.209Z,19.9
2023-01-26T22:53:21.927Z,17.9
2023-01-26T22:58:57.377Z,23.8
2023-01-26T23:03:59.810Z,28.2
2023-01-26T23:09:20.590Z,27.8
2023-01-26T23:14:44.522Z,33.8
2023-01-26T23:20:12.193Z,40.4
2023-01-26T23:25:27.235Z,35.3
2023-01-26T23:46:43.169Z,30.2
2023-01-26T23:51:57.183Z,34
2023-01-26T23:57:09.341Z,33.4
